Time;durP1;ratioP1;P1;durP2;ratioP2;P2;SDS_P1;SDS_P2;PMS_P1;PMS_P2;Temp;Humidity;BMP_temperature;BMP_pressure;BME280_temperature;BME280_humidity;BME280_pressure;Samples;Min_cycle;Max_cycle;Signal;HPM_P1;HPM_P2
2021/09/17 00:01:16;;;;;;;15.00;12.65;;;16.80;99.90;;;;;;5073719;28;20023;-76
2021/09/17 00:03:42;;;;;;;15.60;13.20;;;16.80;99.90;;;;;;5071582;28;20027;-76
2021/09/17 00:06:08;;;;;;;17.02;13.18;;;16.80;99.90;;;;;;5070441;28;20025;-76
2021/09/17 00:08:34;;;;;;;16.75;13.70;;;16.80;99.90;;;;;;5075155;28;20366;-76
2021/09/17 00:11:00;;;;;;;22.10;16.05;;;16.80;99.90;;;;;;5063102;28;20024;-76
2021/09/17 00:13:26;;;;;;;18.77;13.48;;;16.70;99.90;;;;;;5074973;28;20112;-76
2021/09/17 00:15:51;;;;;;;19.67;15.05;;;16.70;99.90;;;;;;5070450;28;20115;-76
2021/09/17 00:18:17;;;;;;;21.48;16.05;;;16.70;99.90;;;;;;5069671;28;20035;-76
2021/09/17 00:20:43;;;;;;;18.80;16.17;;;16.70;99.90;;;;;;5070849;28;20029;-76
2021/09/17 00:23:09;;;;;;;19.38;15.88;;;16.70;99.90;;;;;;5065196;28;20043;-76
2021/09/17 00:25:35;;;;;;;18.98;15.25;;;16.70;99.90;;;;;;5066498;28;20040;-76
2021/09/17 00:28:01;;;;;;;19.65;16.88;;;16.70;99.90;;;;;;5069391;28;20028;-76
2021/09/17 00:30:28;;;;;;;20.67;17.17;;;16.70;99.90;;;;;;5066843;28;20385;-76
2021/09/17 00:32:58;;;;;;;19.15;16.08;;;16.60;99.90;;;;;;5070957;28;20032;-76
2021/09/17 00:35:25;;;;;;;20.95;16.98;;;16.70;99.90;;;;;;5069692;28;20044;-76
2021/09/17 00:37:51;;;;;;;20.48;16.13;;;16.70;99.90;;;;;;5072038;28;20024;-76
2021/09/17 00:40:17;;;;;;;19.88;16.58;;;16.70;99.90;;;;;;5071231;28;20048;-77
2021/09/17 00:42:43;;;;;;;21.77;17.73;;;16.70;99.90;;;;;;5069467;28;20466;-76
2021/09/17 00:45:12;;;;;;;21.73;16.80;;;16.70;99.90;;;;;;5065299;28;20024;-78
2021/09/17 00:47:39;;;;;;;19.98;16.70;;;16.70;99.90;;;;;;5078331;28;20013;-76
2021/09/17 00:50:07;;;;;;;22.50;18.33;;;16.70;99.90;;;;;;5068730;28;20024;-77
2021/09/17 00:52:33;;;;;;;20.52;17.23;;;16.60;99.90;;;;;;5064841;28;20059;-76
2021/09/17 00:54:59;;;;;;;22.08;18.05;;;16.70;99.90;;;;;;5070882;28;20361;-76
2021/09/17 00:57:26;;;;;;;22.50;18.42;;;16.70;99.90;;;;;;5067049;28;20489;-76
2021/09/17 00:59:51;;;;;;;23.73;18.60;;;16.70;99.90;;;;;;5068037;28;20511;-76
2021/09/17 01:02:17;;;;;;;21.75;17.30;;;16.70;99.90;;;;;;5066026;28;20025;-75
2021/09/17 01:04:43;;;;;;;25.63;19.50;;;16.70;99.90;;;;;;5068568;28;20123;-76
2021/09/17 01:07:09;;;;;;;26.23;20.65;;;16.70;99.90;;;;;;5068250;28;20545;-76
2021/09/17 01:09:35;;;;;;;24.63;20.20;;;16.70;99.90;;;;;;5066189;28;20020;-76
2021/09/17 01:12:04;;;;;;;26.17;19.30;;;16.70;99.90;;;;;;5070101;28;20056;-76
2021/09/17 01:14:35;;;;;;;24.52;18.67;;;16.70;99.90;;;;;;5068850;28;20464;-76
2021/09/17 01:17:02;;;;;;;25.02;19.45;;;16.80;99.90;;;;;;5064421;28;20036;-76
2021/09/17 01:19:28;;;;;;;25.90;19.73;;;16.70;99.90;;;;;;5086751;28;20481;-76
2021/09/17 01:22:08;;;;;;;28.10;20.45;;;16.80;99.90;;;;;;5074453;28;20052;-76
2021/09/17 01:24:34;;;;;;;27.85;21.05;;;16.80;99.90;;;;;;5070425;28;20028;-76
2021/09/17 01:27:00;;;;;;;24.25;19.58;;;16.80;99.90;;;;;;5065770;28;20032;-76
2021/09/17 01:29:26;;;;;;;26.85;18.98;;;16.80;99.90;;;;;;5068002;28;20522;-75
2021/09/17 01:31:52;;;;;;;28.60;20.17;;;16.80;99.90;;;;;;5067205;28;20081;-75
2021/09/17 01:34:21;;;;;;;26.13;19.85;;;16.80;99.90;;;;;;5068642;28;20028;-75
2021/09/17 01:36:48;;;;;;;30.33;21.77;;;16.80;99.90;;;;;;5066665;28;20024;-76
2021/09/17 01:39:14;;;;;;;30.23;21.23;;;16.90;99.90;;;;;;5074353;28;20024;-76
2021/09/17 01:41:41;;;;;;;32.25;20.50;;;16.80;99.90;;;;;;5069999;28;20023;-76
2021/09/17 01:44:07;;;;;;;30.90;22.70;;;16.90;99.90;;;;;;5070697;28;20501;-76
2021/09/17 01:46:33;;;;;;;28.77;21.15;;;16.80;99.90;;;;;;5066984;28;20024;-76
2021/09/17 01:48:58;;;;;;;29.98;21.65;;;16.90;99.90;;;;;;5069509;28;20468;-76
2021/09/17 01:51:24;;;;;;;29.52;21.88;;;16.90;99.90;;;;;;5071266;28;20039;-76
2021/09/17 01:53:50;;;;;;;27.83;20.50;;;16.80;99.90;;;;;;5066474;28;20024;-76
2021/09/17 01:56:16;;;;;;;28.75;21.58;;;16.80;99.90;;;;;;5070031;28;20096;-76
2021/09/17 01:58:43;;;;;;;31.35;22.23;;;16.90;99.90;;;;;;5068101;28;20024;-76
2021/09/17 02:01:09;;;;;;;30.27;22.90;;;16.90;99.90;;;;;;5073986;28;20167;-76
2021/09/17 02:03:35;;;;;;;29.50;21.58;;;16.80;99.90;;;;;;5062675;28;20021;-77
2021/09/17 02:06:01;;;;;;;32.97;24.67;;;16.90;99.90;;;;;;5067813;28;20421;-77
2021/09/17 02:08:27;;;;;;;39.42;27.80;;;16.80;99.90;;;;;;5065762;28;20032;-76
2021/09/17 02:10:52;;;;;;;39.35;25.00;;;16.90;99.90;;;;;;5070225;28;20068;-77
2021/09/17 02:13:20;;;;;;;31.00;22.90;;;16.90;99.90;;;;;;5064747;28;20361;-76
2021/09/17 02:15:50;;;;;;;37.17;25.50;;;16.90;99.90;;;;;;5066074;28;20032;-76
2021/09/17 02:18:17;;;;;;;41.35;26.48;;;16.90;99.90;;;;;;5068796;28;20366;-76
2021/09/17 02:20:43;;;;;;;40.17;29.10;;;16.90;99.90;;;;;;5075316;28;20028;-76
2021/09/17 02:23:09;;;;;;;37.45;26.73;;;16.90;99.90;;;;;;5071640;28;20020;-76
2021/09/17 02:25:35;;;;;;;39.08;28.20;;;16.90;99.90;;;;;;5070605;28;20503;-76
2021/09/17 02:28:01;;;;;;;40.25;27.25;;;16.90;99.90;;;;;;5071981;28;20401;-76
2021/09/17 02:30:27;;;;;;;40.08;27.55;;;16.90;99.90;;;;;;5067841;28;20032;-76
2021/09/17 02:32:53;;;;;;;35.45;24.42;;;16.90;99.90;;;;;;5069858;28;20040;-76
2021/09/17 02:35:18;;;;;;;36.83;26.00;;;16.90;99.90;;;;;;5068137;28;20053;-76
2021/09/17 02:37:44;;;;;;;35.70;24.73;;;16.90;99.90;;;;;;5063897;28;20033;-76
2021/09/17 02:40:12;;;;;;;35.13;25.95;;;16.90;99.90;;;;;;5088579;28;20016;-76
2021/09/17 02:42:38;;;;;;;37.47;26.33;;;16.90;99.90;;;;;;5068604;28;20017;-76
2021/09/17 02:45:06;;;;;;;37.00;25.05;;;16.90;99.90;;;;;;5069688;28;20747;-76
2021/09/17 02:47:32;;;;;;;32.42;24.48;;;16.90;99.90;;;;;;5064466;28;20499;-76
2021/09/17 02:49:58;;;;;;;36.03;25.98;;;16.90;99.90;;;;;;5065431;28;20028;-77
2021/09/17 02:52:24;;;;;;;33.13;22.13;;;16.70;99.90;;;;;;5064395;28;20041;-76
2021/09/17 02:54:50;;;;;;;38.78;25.42;;;16.80;99.90;;;;;;5067160;28;20024;-76
2021/09/17 02:57:16;;;;;;;36.33;24.05;;;16.90;99.90;;;;;;5069749;28;20040;-76
2021/09/17 02:59:42;;;;;;;35.47;23.40;;;16.90;99.90;;;;;;5074946;28;20044;-77
2021/09/17 03:02:08;;;;;;;33.10;23.42;;;16.90;99.90;;;;;;5069981;28;20064;-77
2021/09/17 03:04:33;;;;;;;34.40;24.17;;;17.00;99.90;;;;;;5068562;28;20472;-77
2021/09/17 03:06:59;;;;;;;29.63;22.80;;;17.00;99.90;;;;;;5072401;28;20032;-76
2021/09/17 03:09:26;;;;;;;35.65;24.48;;;17.00;99.90;;;;;;5066583;28;20075;-77
2021/09/17 03:11:51;;;;;;;33.35;24.83;;;17.00;99.90;;;;;;5066514;28;20056;-77
2021/09/17 03:14:18;;;;;;;34.28;24.05;;;17.00;99.90;;;;;;5077646;28;20032;-76
2021/09/17 03:16:43;;;;;;;31.08;22.30;;;17.00;99.90;;;;;;5073460;28;20507;-77
2021/09/17 03:19:09;;;;;;;36.45;24.67;;;17.00;99.90;;;;;;5078789;28;20017;-77
2021/09/17 03:21:35;;;;;;;34.40;24.27;;;17.00;99.90;;;;;;5079207;28;20055;-76
2021/09/17 03:24:01;;;;;;;34.58;22.73;;;17.00;99.90;;;;;;5074579;28;20020;-77
2021/09/17 03:26:26;;;;;;;40.47;26.30;;;17.00;99.90;;;;;;5073944;28;20064;-77
2021/09/17 03:28:52;;;;;;;34.40;23.73;;;16.90;99.90;;;;;;5073996;28;20035;-77
2021/09/17 03:31:18;;;;;;;36.00;25.02;;;16.90;99.90;;;;;;5076758;28;20037;-77
2021/09/17 03:33:44;;;;;;;31.27;22.23;;;16.90;99.90;;;;;;5075226;28;20354;-76
2021/09/17 03:36:10;;;;;;;36.35;24.90;;;17.00;99.90;;;;;;5076901;28;20430;-77
2021/09/17 03:38:35;;;;;;;36.65;25.80;;;17.00;99.90;;;;;;5071708;28;20032;-76
2021/09/17 03:41:02;;;;;;;36.75;23.08;;;17.00;99.90;;;;;;5076950;28;20422;-76
2021/09/17 03:43:28;;;;;;;35.67;23.35;;;16.90;99.90;;;;;;5074857;28;20111;-76
2021/09/17 03:45:54;;;;;;;33.88;24.60;;;16.90;99.90;;;;;;5078833;28;20099;-77
2021/09/17 03:48:20;;;;;;;34.40;23.40;;;16.90;99.90;;;;;;5084710;28;20071;-76
2021/09/17 03:50:45;;;;;;;37.95;23.45;;;16.80;99.90;;;;;;5076966;28;20028;-76
2021/09/17 03:53:11;;;;;;;41.60;25.65;;;16.80;99.90;;;;;;5073196;28;20546;-77
2021/09/17 03:55:39;;;;;;;44.50;25.30;;;16.80;99.90;;;;;;5070785;28;20028;-76
2021/09/17 03:58:05;;;;;;;29.73;21.50;;;16.70;99.90;;;;;;5081344;28;20039;-77
2021/09/17 04:00:31;;;;;;;40.80;25.98;;;16.70;99.90;;;;;;5075598;28;20024;-76
2021/09/17 04:02:57;;;;;;;32.58;23.15;;;16.80;99.90;;;;;;5077540;28;20094;-76
2021/09/17 04:05:23;;;;;;;36.90;23.48;;;16.80;99.90;;;;;;5071537;28;20059;-76
2021/09/17 04:07:49;;;;;;;35.17;23.58;;;16.80;99.90;;;;;;5071184;28;20024;-76
2021/09/17 04:10:16;;;;;;;37.33;24.05;;;16.80;99.90;;;;;;5077402;28;20086;-76
2021/09/17 04:12:42;;;;;;;39.75;25.52;;;16.80;99.90;;;;;;5076113;28;20090;-76
2021/09/17 04:15:08;;;;;;;44.08;25.20;;;16.90;99.90;;;;;;5075688;28;20024;-76
2021/09/17 04:17:34;;;;;;;37.67;23.35;;;16.90;99.90;;;;;;5075607;28;20020;-76
2021/09/17 04:20:00;;;;;;;38.63;25.70;;;16.90;99.90;;;;;;5076283;28;20027;-76
2021/09/17 04:22:26;;;;;;;35.80;24.38;;;16.90;99.90;;;;;;5072489;28;20115;-76
2021/09/17 04:24:53;;;;;;;34.35;23.95;;;16.90;99.90;;;;;;5075276;28;20036;-76
2021/09/17 04:27:22;;;;;;;31.52;22.38;;;16.90;99.90;;;;;;5070970;28;20032;-75
2021/09/17 04:29:48;;;;;;;38.72;25.70;;;16.90;99.90;;;;;;5076162;28;20504;-76
2021/09/17 04:32:14;;;;;;;38.10;27.45;;;16.90;99.90;;;;;;5083769;28;20032;-76
2021/09/17 04:34:40;;;;;;;44.78;26.92;;;16.90;99.90;;;;;;5076688;28;20020;-76
2021/09/17 04:37:06;;;;;;;42.03;26.55;;;16.90;99.90;;;;;;5073178;28;20032;-76
2021/09/17 04:39:31;;;;;;;36.03;25.88;;;16.90;99.90;;;;;;5075748;28;20024;-76
2021/09/17 04:41:57;;;;;;;41.70;28.10;;;16.90;99.90;;;;;;5075269;28;20036;-76
2021/09/17 04:44:23;;;;;;;41.42;29.05;;;16.90;99.90;;;;;;5077038;28;20107;-76
2021/09/17 04:46:49;;;;;;;46.92;31.08;;;16.90;99.90;;;;;;5075980;28;20107;-76
2021/09/17 04:49:14;;;;;;;45.88;30.52;;;16.90;99.90;;;;;;5070567;28;20097;-77
2021/09/17 04:51:40;;;;;;;39.33;29.35;;;16.90;99.90;;;;;;5073666;28;20029;-76
2021/09/17 04:54:06;;;;;;;44.08;30.40;;;16.90;99.90;;;;;;5070052;28;20016;-76
2021/09/17 04:56:32;;;;;;;45.70;31.75;;;16.90;99.90;;;;;;5076378;28;20032;-76
2021/09/17 04:58:58;;;;;;;45.90;31.42;;;16.90;99.90;;;;;;5077791;28;20032;-76
2021/09/17 05:01:23;;;;;;;34.38;24.20;;;16.90;99.90;;;;;;5074359;28;20021;-77
2021/09/17 05:03:50;;;;;;;34.70;24.42;;;16.90;99.90;;;;;;5072058;28;20513;-76
2021/09/17 05:06:16;;;;;;;52.53;34.55;;;16.90;99.90;;;;;;5074259;28;20016;-76
2021/09/17 05:08:42;;;;;;;50.08;32.70;;;16.90;99.90;;;;;;5077263;28;20418;-76
2021/09/17 05:11:08;;;;;;;54.10;33.40;;;16.90;99.90;;;;;;5072231;28;20024;-77
2021/09/17 05:13:34;;;;;;;43.03;31.33;;;17.00;99.90;;;;;;5070697;28;20032;-76
2021/09/17 05:16:00;;;;;;;48.42;34.53;;;16.90;99.90;;;;;;5076143;28;20029;-76
2021/09/17 05:18:25;;;;;;;42.58;29.45;;;16.90;99.90;;;;;;5071483;28;20040;-76
2021/09/17 05:20:51;;;;;;;41.53;27.65;;;16.90;99.90;;;;;;5075236;28;20048;-76
2021/09/17 05:23:17;;;;;;;49.45;30.85;;;16.90;99.90;;;;;;5073402;28;20067;-76
2021/09/17 05:25:43;;;;;;;45.65;30.83;;;16.90;99.90;;;;;;5070755;28;20465;-76
2021/09/17 05:28:08;;;;;;;47.85;30.98;;;16.90;99.90;;;;;;5074118;28;20410;-76
2021/09/17 05:30:34;;;;;;;50.70;32.85;;;16.90;99.90;;;;;;5072482;28;20027;-77
2021/09/17 05:33:01;;;;;;;53.22;34.92;;;16.90;99.90;;;;;;5088091;28;20916;-78
2021/09/17 05:35:26;;;;;;;53.22;33.75;;;16.90;99.90;;;;;;5066498;28;20507;-77
2021/09/17 05:37:52;;;;;;;51.45;33.90;;;16.90;99.90;;;;;;5075094;28;20447;-76
2021/09/17 05:40:18;;;;;;;45.35;30.58;;;16.90;99.90;;;;;;5077143;28;20016;-77
2021/09/17 05:42:44;;;;;;;44.75;31.50;;;16.90;99.90;;;;;;5075857;28;20028;-76
2021/09/17 05:45:10;;;;;;;46.80;31.80;;;16.90;99.90;;;;;;5076188;28;20027;-77
2021/09/17 05:47:37;;;;;;;52.83;32.90;;;16.90;99.90;;;;;;5071381;28;20041;-76
2021/09/17 05:50:04;;;;;;;51.85;34.75;;;16.90;99.90;;;;;;5071287;28;20029;-77
2021/09/17 05:52:30;;;;;;;53.20;37.15;;;16.90;99.90;;;;;;5063366;28;20044;-76
2021/09/17 05:54:55;;;;;;;53.95;37.83;;;17.00;99.90;;;;;;5072146;28;20540;-77
2021/09/17 05:57:21;;;;;;;46.65;33.55;;;16.90;99.90;;;;;;5072325;28;20078;-76
2021/09/17 05:59:47;;;;;;;48.63;33.72;;;16.90;99.90;;;;;;5074340;28;20081;-76
2021/09/17 06:02:13;;;;;;;60.72;37.22;;;16.90;99.90;;;;;;5068234;28;20028;-77
2021/09/17 06:04:38;;;;;;;49.22;35.67;;;16.90;99.90;;;;;;5074193;28;20164;-77
2021/09/17 06:07:04;;;;;;;54.60;36.75;;;16.80;99.90;;;;;;5058637;28;20017;-77
2021/09/17 06:09:30;;;;;;;58.33;39.65;;;16.90;99.90;;;;;;5078631;28;20476;-77
2021/09/17 06:11:56;;;;;;;49.97;36.22;;;16.80;99.90;;;;;;5075754;28;20467;-77
2021/09/17 06:14:22;;;;;;;57.72;37.65;;;16.90;99.90;;;;;;5074820;28;20036;-77
2021/09/17 06:16:47;;;;;;;57.78;38.78;;;16.90;99.90;;;;;;5076592;28;20029;-77
2021/09/17 06:19:13;;;;;;;60.90;41.80;;;17.00;99.90;;;;;;5068294;28;20040;-77
2021/09/17 06:21:39;;;;;;;60.78;41.45;;;17.00;99.90;;;;;;5070919;28;20039;-77
2021/09/17 06:24:05;;;;;;;59.60;41.15;;;17.10;99.90;;;;;;5069519;28;20032;-77
2021/09/17 06:26:31;;;;;;;60.72;40.05;;;17.00;99.90;;;;;;5070522;28;20400;-77
2021/09/17 06:29:03;;;;;;;51.05;35.25;;;17.00;99.90;;;;;;5065296;28;20039;-77
2021/09/17 06:31:29;;;;;;;54.00;37.63;;;17.10;99.90;;;;;;5068954;28;20068;-76
2021/09/17 06:33:55;;;;;;;56.10;39.10;;;17.10;99.90;;;;;;5068345;28;20025;-76
2021/09/17 06:36:21;;;;;;;58.90;39.47;;;17.10;99.90;;;;;;5071785;28;20032;-77
2021/09/17 06:38:47;;;;;;;53.88;37.80;;;17.10;99.90;;;;;;5076609;28;20555;-76
2021/09/17 06:41:13;;;;;;;57.17;38.42;;;17.10;99.90;;;;;;5065712;28;20419;-76
2021/09/17 06:43:38;;;;;;;54.25;36.92;;;17.20;99.90;;;;;;5069090;28;20024;-76
2021/09/17 06:46:04;;;;;;;56.17;37.08;;;17.10;99.90;;;;;;5063855;28;20096;-76
2021/09/17 06:48:30;;;;;;;59.10;38.83;;;17.10;99.90;;;;;;5071298;28;20025;-78
2021/09/17 06:50:56;;;;;;;54.80;38.17;;;17.10;99.90;;;;;;5066838;28;20070;-76
2021/09/17 06:53:22;;;;;;;56.97;39.67;;;17.10;99.90;;;;;;5069304;28;20086;-76
2021/09/17 06:55:47;;;;;;;50.47;37.33;;;17.10;99.90;;;;;;5066792;28;20028;-76
2021/09/17 06:58:13;;;;;;;52.03;36.75;;;17.20;99.90;;;;;;5069632;28;20033;-77
2021/09/17 07:00:39;;;;;;;58.28;39.75;;;17.30;99.90;;;;;;5067277;28;20040;-76
2021/09/17 07:03:06;;;;;;;63.67;41.40;;;17.30;99.90;;;;;;5067731;28;20404;-77
2021/09/17 07:05:33;;;;;;;60.67;43.17;;;17.30;99.90;;;;;;5060270;28;20032;-76
2021/09/17 07:08:00;;;;;;;55.00;37.20;;;17.30;99.90;;;;;;5065146;28;20020;-76
2021/09/17 07:10:27;;;;;;;60.65;38.83;;;17.40;99.90;;;;;;5066108;28;20025;-77
2021/09/17 07:12:52;;;;;;;58.38;40.42;;;17.40;99.90;;;;;;5068818;28;20062;-77
2021/09/17 07:15:18;;;;;;;57.72;37.42;;;17.40;99.90;;;;;;5068342;28;20016;-76
2021/09/17 07:17:44;;;;;;;59.80;39.38;;;17.50;99.90;;;;;;5069725;28;20033;-77
2021/09/17 07:20:10;;;;;;;61.88;39.58;;;17.50;99.90;;;;;;5070162;28;20015;-76
2021/09/17 07:22:36;;;;;;;56.67;38.42;;;17.50;99.90;;;;;;5071099;28;20514;-76
2021/09/17 07:25:03;;;;;;;60.90;40.40;;;17.60;99.90;;;;;;5069747;28;20024;-76
2021/09/17 07:27:29;;;;;;;63.35;41.40;;;17.50;99.90;;;;;;5069402;28;20056;-77
2021/09/17 07:29:55;;;;;;;62.88;43.20;;;17.60;99.90;;;;;;5068207;28;20062;-77
2021/09/17 07:32:21;;;;;;;62.83;40.63;;;17.60;99.90;;;;;;5072373;28;20125;-76
2021/09/17 07:34:47;;;;;;;62.78;40.65;;;17.70;99.90;;;;;;5078758;28;20028;-76
2021/09/17 07:37:12;;;;;;;55.83;39.47;;;17.80;99.90;;;;;;5077625;28;20029;-77
2021/09/17 07:39:39;;;;;;;60.45;40.53;;;17.80;99.90;;;;;;5074973;28;20065;-76
2021/09/17 07:42:05;;;;;;;56.03;39.22;;;17.90;99.90;;;;;;5076027;28;20024;-77
2021/09/17 07:44:32;;;;;;;61.67;42.40;;;17.80;99.90;;;;;;5049565;28;20469;-77
2021/09/17 07:46:58;;;;;;;61.33;42.47;;;17.80;99.90;;;;;;5074323;28;20016;-77
2021/09/17 07:49:25;;;;;;;63.70;43.42;;;17.90;99.90;;;;;;5071212;28;20107;-77
2021/09/17 07:51:50;;;;;;;69.85;46.83;;;17.80;99.90;;;;;;5066264;28;20032;-77
2021/09/17 07:54:17;;;;;;;65.15;43.80;;;18.00;99.90;;;;;;5066956;28;20035;-77
2021/09/17 07:56:42;;;;;;;65.95;48.22;;;18.00;99.90;;;;;;5075975;28;20035;-76
2021/09/17 07:59:08;;;;;;;68.15;47.03;;;17.90;99.90;;;;;;5075873;28;20106;-76
2021/09/17 08:01:34;;;;;;;69.10;45.33;;;18.00;99.90;;;;;;5068784;28;20372;-76
2021/09/17 08:03:59;;;;;;;69.90;45.95;;;18.10;99.90;;;;;;5068794;28;20485;-76
2021/09/17 08:06:25;;;;;;;69.45;45.97;;;18.20;99.90;;;;;;5068116;28;20032;-77
2021/09/17 08:08:51;;;;;;;68.45;47.30;;;18.20;99.90;;;;;;5068750;28;20035;-76
2021/09/17 08:11:17;;;;;;;69.40;46.42;;;18.20;99.90;;;;;;5069989;28;20033;-77
2021/09/17 08:13:42;;;;;;;62.25;44.30;;;18.30;99.90;;;;;;5073521;28;20028;-76
2021/09/17 08:16:08;;;;;;;66.50;46.15;;;18.40;99.90;;;;;;5069387;28;20024;-77
2021/09/17 08:18:34;;;;;;;67.57;47.53;;;18.40;99.90;;;;;;5067113;28;20481;-76
2021/09/17 08:21:00;;;;;;;71.18;46.53;;;18.40;99.90;;;;;;5081206;28;20024;-78
2021/09/17 08:23:26;;;;;;;65.65;44.78;;;18.40;99.90;;;;;;5070657;28;20044;-77
2021/09/17 08:25:54;;;;;;;68.60;45.58;;;18.50;99.90;;;;;;5065217;28;20028;-76
2021/09/17 08:28:24;;;;;;;62.50;45.63;;;18.50;99.90;;;;;;5081718;28;20047;-76
2021/09/17 08:30:50;;;;;;;69.97;45.40;;;18.50;99.90;;;;;;5065950;28;20465;-76
2021/09/17 08:33:16;;;;;;;69.88;46.50;;;18.60;99.90;;;;;;5067874;28;20039;-77
2021/09/17 08:35:42;;;;;;;69.45;45.72;;;18.50;99.90;;;;;;5068505;28;20012;-77
2021/09/17 08:38:08;;;;;;;65.40;45.88;;;18.60;99.90;;;;;;5067774;28;20073;-77
2021/09/17 08:40:34;;;;;;;65.88;47.00;;;18.60;99.90;;;;;;5076270;28;20460;-77
2021/09/17 08:43:00;;;;;;;64.95;44.17;;;18.50;99.90;;;;;;5064852;28;20078;-77
2021/09/17 08:45:30;;;;;;;66.22;45.35;;;18.60;99.90;;;;;;5068707;28;20397;-78
2021/09/17 08:48:00;;;;;;;66.05;43.47;;;18.70;99.90;;;;;;5070441;28;20504;-79
2021/09/17 08:50:26;;;;;;;67.00;47.20;;;18.80;99.90;;;;;;5067326;28;20413;-78
2021/09/17 08:52:52;;;;;;;67.90;44.60;;;18.90;99.90;;;;;;5062985;28;20050;-78
2021/09/17 08:55:19;;;;;;;68.25;43.58;;;19.00;99.90;;;;;;5069959;28;20016;-79
2021/09/17 08:57:46;;;;;;;68.90;43.65;;;19.00;99.90;;;;;;5060798;28;20110;-79
2021/09/17 09:00:27;;;;;;;64.70;44.63;;;19.00;99.90;;;;;;5074262;28;20032;-77
2021/09/17 09:02:57;;;;;;;65.28;41.88;;;19.10;99.90;;;;;;5072071;28;20029;-76
2021/09/17 09:05:41;;;;;;;66.85;44.28;;;19.20;99.90;;;;;;5076289;28;20020;-74
2021/09/17 09:08:08;;;;;;;68.82;41.97;;;19.30;99.90;;;;;;5074574;28;20479;-76
2021/09/17 09:10:34;;;;;;;59.83;40.75;;;19.40;99.90;;;;;;5076049;28;20066;-74
2021/09/17 09:13:04;;;;;;;61.47;39.85;;;19.50;99.90;;;;;;5073064;28;20542;-74
2021/09/17 09:15:33;;;;;;;68.00;41.95;;;19.60;99.90;;;;;;5060465;28;20111;-74
2021/09/17 09:18:11;;;;;;;61.78;39.33;;;19.70;99.90;;;;;;5068961;28;20051;-73
2021/09/17 09:20:40;;;;;;;67.05;40.78;;;19.80;99.90;;;;;;5072651;28;20036;-74
2021/09/17 09:23:09;;;;;;;71.72;41.45;;;19.80;99.90;;;;;;5079377;28;20021;-74
2021/09/17 09:25:46;;;;;;;64.75;39.80;;;20.00;99.90;;;;;;5077438;28;20036;-74
2021/09/17 09:28:14;;;;;;;65.18;41.35;;;20.10;99.90;;;;;;5073617;28;20052;-74
2021/09/17 09:30:40;;;;;;;63.17;37.50;;;20.20;99.90;;;;;;5074852;28;20032;-74
2021/09/17 09:33:52;;;;;;;62.20;39.03;;;20.40;99.90;;;;;;5085524;28;20050;-74
2021/09/17 09:36:20;;;;;;;53.58;34.05;;;20.40;99.90;;;;;;5063441;28;20062;-74
2021/09/17 09:38:48;;;;;;;55.45;34.25;;;20.60;99.90;;;;;;5065045;28;20482;-74
2021/09/17 09:41:17;;;;;;;61.30;38.00;;;20.70;99.90;;;;;;5074484;28;20028;-74
2021/09/17 09:43:57;;;;;;;54.15;34.45;;;20.80;99.90;;;;;;5075799;28;20024;-75
2021/09/17 09:46:28;;;;;;;54.20;33.88;;;21.00;99.90;;;;;;5070094;28;20029;-74
2021/09/17 09:49:02;;;;;;;48.95;30.83;;;21.20;99.90;;;;;;5068796;28;20090;-75
2021/09/17 09:51:31;;;;;;;51.55;31.85;;;21.30;99.90;;;;;;5068506;28;20039;-75
2021/09/17 09:54:00;;;;;;;52.03;33.45;;;21.20;99.90;;;;;;5071733;28;20082;-75
2021/09/17 09:56:27;;;;;;;51.85;34.20;;;21.30;99.90;;;;;;5065108;28;20059;-75
2021/09/17 09:58:53;;;;;;;48.53;31.40;;;21.40;99.90;;;;;;5071150;28;20036;-74
2021/09/17 10:01:22;;;;;;;49.65;30.73;;;21.40;99.90;;;;;;5062922;28;20028;-75
2021/09/17 10:03:53;;;;;;;53.50;31.55;;;21.50;99.90;;;;;;5069198;28;20039;-75
2021/09/17 10:06:20;;;;;;;48.75;30.73;;;21.60;99.90;;;;;;5071105;28;20384;-74
2021/09/17 10:08:46;;;;;;;52.08;34.08;;;21.80;99.90;;;;;;5068911;28;20025;-74
2021/09/17 10:11:12;;;;;;;49.00;31.27;;;22.00;99.90;;;;;;5061139;28;20036;-74
2021/09/17 10:13:42;;;;;;;47.15;31.73;;;22.10;99.90;;;;;;5065922;28;20384;-75
2021/09/17 10:16:07;;;;;;;51.80;33.30;;;22.20;99.90;;;;;;5070057;28;20418;-76
2021/09/17 10:18:35;;;;;;;49.88;32.92;;;22.30;99.90;;;;;;5069030;28;20092;-74
2021/09/17 10:21:01;;;;;;;46.47;30.80;;;22.40;99.90;;;;;;5064639;28;20035;-74
2021/09/17 10:23:29;;;;;;;40.97;28.02;;;22.50;99.90;;;;;;5071461;28;20474;-75
2021/09/17 10:26:00;;;;;;;38.22;24.88;;;22.50;99.90;;;;;;5065555;28;20103;-75
2021/09/17 10:28:26;;;;;;;41.20;26.48;;;22.60;99.90;;;;;;5064271;28;20489;-75
2021/09/17 10:30:52;;;;;;;39.10;25.20;;;22.50;99.90;;;;;;5067675;28;20033;-75
2021/09/17 10:33:25;;;;;;;38.00;25.65;;;22.60;99.90;;;;;;5067685;28;20523;-75
2021/09/17 10:35:51;;;;;;;38.65;26.35;;;22.60;99.90;;;;;;5071943;28;20013;-75
2021/09/17 10:38:44;;;;;;;35.05;24.65;;;22.60;99.90;;;;;;5066420;28;20099;-75
2021/09/17 10:41:14;;;;;;;36.33;24.92;;;22.60;99.90;;;;;;5063151;28;20028;-75
2021/09/17 10:44:00;;;;;;;41.55;26.52;;;22.60;99.90;;;;;;5074351;28;20106;-75
2021/09/17 10:46:32;;;;;;;38.88;25.65;;;22.70;99.90;;;;;;5067610;28;20029;-75
2021/09/17 10:48:58;;;;;;;41.55;30.35;;;22.80;99.90;;;;;;5063899;28;20064;-74
2021/09/17 10:51:36;;;;;;;34.78;24.13;;;22.90;99.90;;;;;;5033249;28;20559;-74
2021/09/17 10:54:12;;;;;;;31.75;22.45;;;23.00;99.90;;;;;;5039408;28;20021;-75
2021/09/17 10:56:50;;;;;;;29.38;20.48;;;23.10;99.90;;;;;;5062074;28;20370;-75
2021/09/17 10:59:29;;;;;;;33.53;23.95;;;23.40;99.90;;;;;;5062589;28;20029;-74
2021/09/17 11:02:06;;;;;;;29.33;22.35;;;23.50;99.90;;;;;;5068846;28;20433;-74
2021/09/17 11:04:39;;;;;;;30.05;21.23;;;23.40;99.90;;;;;;5068015;28;20017;-75
2021/09/17 11:07:17;;;;;;;29.27;20.92;;;23.50;99.90;;;;;;5067050;28;20044;-75
2021/09/17 11:09:48;;;;;;;27.17;19.95;;;23.60;99.90;;;;;;5066075;28;20040;-75
2021/09/17 11:12:19;;;;;;;27.58;21.00;;;23.70;99.90;;;;;;5065523;28;20024;-75
2021/09/17 11:15:18;;;;;;;25.85;18.52;;;23.70;99.90;;;;;;5068971;28;20025;-76
2021/09/17 11:17:58;;;;;;;27.25;19.00;;;23.80;99.90;;;;;;5066861;28;20553;-75
2021/09/17 11:20:29;;;;;;;26.45;18.15;;;23.90;99.90;;;;;;5071125;28;20066;-75
2021/09/17 11:23:07;;;;;;;27.63;18.92;;;23.90;99.90;;;;;;5075442;28;20366;-75
2021/09/17 11:25:41;;;;;;;25.98;18.85;;;23.80;99.90;;;;;;5073534;28;20366;-76
2021/09/17 11:28:30;;;;;;;24.92;17.13;;;23.50;99.90;;;;;;5075434;28;20032;-75
2021/09/17 11:31:08;;;;;;;27.58;18.58;;;23.40;99.90;;;;;;5070978;28;20031;-75
2021/09/17 11:33:34;;;;;;;25.55;17.05;;;23.40;99.90;;;;;;5074812;28;20377;-75
2021/09/17 11:36:00;;;;;;;27.55;17.20;;;23.30;99.90;;;;;;5076120;28;20027;-77
2021/09/17 11:38:26;;;;;;;23.40;15.77;;;23.00;99.90;;;;;;5073668;28;20020;-76
2021/09/17 11:40:55;;;;;;;21.83;15.25;;;23.20;99.90;;;;;;5075071;28;20075;-77
2021/09/17 11:43:21;;;;;;;21.35;13.88;;;23.40;99.90;;;;;;5079234;28;20078;-77
2021/09/17 11:45:48;;;;;;;21.75;14.90;;;23.50;99.90;;;;;;5082519;28;20029;-76
2021/09/17 11:48:22;;;;;;;24.33;16.05;;;23.70;99.90;;;;;;5078341;28;20023;-76
2021/09/17 11:50:49;;;;;;;17.55;12.40;;;23.80;99.90;;;;;;5074917;28;20021;-76
2021/09/17 11:53:15;;;;;;;17.70;11.25;;;23.70;99.90;;;;;;5073607;28;20049;-76
2021/09/17 11:55:41;;;;;;;15.25;11.25;;;23.80;99.90;;;;;;5078040;28;20358;-77
2021/09/17 11:58:07;;;;;;;13.55;10.75;;;23.90;99.90;;;;;;5074169;28;20036;-77
2021/09/17 12:00:32;;;;;;;15.32;11.60;;;23.90;99.90;;;;;;5074363;28;20017;-77
2021/09/17 12:03:06;;;;;;;16.58;11.57;;;23.80;99.90;;;;;;5072763;28;20032;-76
2021/09/17 12:05:36;;;;;;;14.68;12.23;;;23.70;99.90;;;;;;5070794;28;20024;-75
2021/09/17 12:08:02;;;;;;;16.55;11.02;;;23.60;99.90;;;;;;5070733;28;20035;-77
2021/09/17 12:10:32;;;;;;;15.50;12.65;;;23.40;99.90;;;;;;5075755;28;20695;-77
2021/09/17 12:13:02;;;;;;;15.73;11.82;;;23.30;99.90;;;;;;5068135;28;20831;-75
2021/09/17 12:15:33;;;;;;;14.82;12.05;;;23.20;99.90;;;;;;5071694;28;20028;-74
2021/09/17 12:18:04;;;;;;;14.57;10.43;;;23.40;99.90;;;;;;5075258;28;20035;-75
2021/09/17 12:20:47;;;;;;;14.57;10.13;;;23.40;99.90;;;;;;5064039;28;20029;-75
2021/09/17 12:23:18;;;;;;;10.65;8.20;;;23.20;99.90;;;;;;5075026;28;20020;-75
2021/09/17 12:25:47;;;;;;;14.00;9.98;;;23.20;99.90;;;;;;5064213;28;20025;-76
2021/09/17 12:28:22;;;;;;;13.55;9.60;;;23.00;99.90;;;;;;5066888;28;20070;-75
2021/09/17 12:30:50;;;;;;;13.30;8.95;;;23.00;99.90;;;;;;5073275;28;20389;-75